createdAt,value
2018-05-31T00:00:51.936Z,21.67
2018-05-31T00:03:20.869Z,23.83
2018-05-31T00:05:49.781Z,23.70
2018-05-31T00:08:18.800Z,27.77
2018-05-31T00:10:47.763Z,21.40
2018-05-31T00:13:16.039Z,27.63
2018-05-31T00:15:44.226Z,25.43
2018-05-31T00:18:13.146Z,24.30
2018-05-31T00:20:41.328Z,26.33
2018-05-31T00:23:09.583Z,21.10
2018-05-31T00:25:38.559Z,21.30
2018-05-31T00:28:07.471Z,21.83
2018-05-31T00:30:35.660Z,20.80
2018-05-31T00:33:03.838Z,21.60
2018-05-31T00:35:32.041Z,21.63
2018-05-31T00:38:00.333Z,23.00
2018-05-31T00:40:29.335Z,20.37
2018-05-31T00:42:57.499Z,29.40
2018-05-31T00:45:25.674Z,24.30
2018-05-31T00:47:53.877Z,19.10
2018-05-31T00:50:22.056Z,24.77
2018-05-31T00:52:50.214Z,26.33
2018-05-31T00:58:27.162Z,20.00
2018-05-31T01:00:55.323Z,20.20
2018-05-31T01:03:23.632Z,18.83
2018-05-31T01:05:51.905Z,18.37
2018-05-31T01:08:20.183Z,25.70
2018-05-31T01:10:48.429Z,21.37
2018-05-31T01:13:16.573Z,21.63
2018-05-31T01:15:44.786Z,21.73
2018-05-31T01:18:12.991Z,20.67
2018-05-31T01:20:41.955Z,25.43
2018-05-31T01:23:10.200Z,29.70
2018-05-31T01:25:38.335Z,26.33
2018-05-31T01:28:07.252Z,21.30
2018-05-31T01:30:35.456Z,26.37
2018-05-31T01:33:03.633Z,23.53
2018-05-31T01:35:31.846Z,19.17
2018-05-31T01:38:18.629Z,19.63
2018-05-31T01:40:47.715Z,19.27
2018-05-31T01:43:15.891Z,18.20
2018-05-31T01:45:44.291Z,18.13
2018-05-31T01:48:12.435Z,19.13
2018-05-31T01:50:40.659Z,20.03
2018-05-31T01:53:08.990Z,18.67
2018-05-31T01:55:37.147Z,30.57
2018-05-31T01:58:05.418Z,18.33
2018-05-31T02:00:34.227Z,19.27
2018-05-31T02:03:02.397Z,23.10
2018-05-31T02:05:30.550Z,18.23
2018-05-31T02:07:58.729Z,24.20
2018-05-31T02:10:26.896Z,22.60
2018-05-31T02:12:55.036Z,20.77
2018-05-31T02:15:23.971Z,24.93
2018-05-31T02:17:52.160Z,26.97
2018-05-31T02:20:20.418Z,24.80
2018-05-31T02:22:48.625Z,21.30
2018-05-31T02:25:16.887Z,20.50
2018-05-31T02:27:45.044Z,20.23
2018-05-31T02:30:13.211Z,24.13
2018-05-31T02:32:41.358Z,20.53
2018-05-31T02:35:09.577Z,20.23
2018-05-31T02:37:38.385Z,20.53
2018-05-31T02:40:07.460Z,23.40
2018-05-31T02:42:35.623Z,22.93
2018-05-31T02:45:03.796Z,29.47
2018-05-31T02:47:31.978Z,26.37
2018-05-31T02:50:00.190Z,22.27
2018-05-31T02:52:28.346Z,29.03
2018-05-31T02:54:56.573Z,25.67
2018-05-31T02:57:24.813Z,22.57
2018-05-31T02:59:53.025Z,26.23
2018-05-31T03:02:21.248Z,23.00
2018-05-31T03:04:49.421Z,19.60
2018-05-31T03:07:18.366Z,27.47
2018-05-31T03:09:46.580Z,21.53
2018-05-31T03:12:15.529Z,24.53
2018-05-31T03:14:43.708Z,24.53
2018-05-31T03:17:11.960Z,21.50
2018-05-31T03:19:40.135Z,23.90
2018-05-31T03:22:08.363Z,23.13
2018-05-31T03:24:37.337Z,26.80
2018-05-31T03:27:05.573Z,21.60
2018-05-31T03:29:33.849Z,32.10
2018-05-31T03:32:02.121Z,22.27
2018-05-31T03:34:30.284Z,24.73
2018-05-31T03:36:58.442Z,23.03
2018-05-31T03:39:26.689Z,22.00
2018-05-31T03:41:55.654Z,28.93
2018-05-31T03:44:23.828Z,24.53
2018-05-31T03:46:51.975Z,24.20
2018-05-31T03:49:20.159Z,21.90
2018-05-31T03:51:48.361Z,22.00
2018-05-31T03:54:16.540Z,23.40
2018-05-31T03:56:44.704Z,20.90
2018-05-31T03:59:12.878Z,25.83
2018-05-31T04:01:41.070Z,27.23
2018-05-31T04:04:10.050Z,24.53
2018-05-31T04:06:38.323Z,27.90
2018-05-31T04:09:06.473Z,31.00
2018-05-31T04:11:34.766Z,22.77
2018-05-31T04:14:02.965Z,27.63
2018-05-31T04:16:31.924Z,21.10
2018-05-31T04:19:00.099Z,27.73
2018-05-31T04:21:28.292Z,24.10
2018-05-31T04:23:56.622Z,30.50
2018-05-31T04:26:24.776Z,19.80
2018-05-31T04:28:52.938Z,21.07
2018-05-31T04:31:21.155Z,22.37
2018-05-31T04:33:49.315Z,30.50
2018-05-31T04:36:17.462Z,23.70
2018-05-31T04:38:45.665Z,21.97
2018-05-31T04:41:13.818Z,24.47
2018-05-31T04:43:42.046Z,27.57
2018-05-31T04:46:10.323Z,22.00
2018-05-31T04:48:38.507Z,26.40
2018-05-31T04:51:07.451Z,20.97
2018-05-31T04:53:35.690Z,21.63
2018-05-31T04:56:04.665Z,27.33
2018-05-31T04:58:33.609Z,30.20
2018-05-31T05:01:01.888Z,25.23
2018-05-31T05:03:30.247Z,24.40
2018-05-31T05:05:58.444Z,24.20
2018-05-31T05:08:26.621Z,22.20
2018-05-31T05:10:54.918Z,30.07
2018-05-31T05:13:23.092Z,28.23
2018-05-31T05:15:51.233Z,31.57
2018-05-31T05:18:19.426Z,20.20
2018-05-31T05:20:47.631Z,25.40
2018-05-31T05:23:16.554Z,28.37
2018-05-31T05:25:44.745Z,21.00
2018-05-31T05:28:12.970Z,36.03
2018-05-31T05:30:41.893Z,27.80
2018-05-31T05:33:10.113Z,23.70
2018-05-31T05:35:38.258Z,28.93
2018-05-31T05:38:06.467Z,28.13
2018-05-31T05:40:35.401Z,27.53
2018-05-31T05:43:03.597Z,29.33
2018-05-31T05:45:31.758Z,20.33
2018-05-31T05:47:59.966Z,27.53
2018-05-31T05:50:28.160Z,20.03
2018-05-31T05:52:57.094Z,24.23
2018-05-31T05:55:25.329Z,26.50
2018-05-31T05:57:54.244Z,28.83
2018-05-31T06:00:22.401Z,31.07
2018-05-31T06:02:51.377Z,31.40
2018-05-31T06:05:20.322Z,35.47
2018-05-31T06:07:48.490Z,24.57
2018-05-31T06:10:16.728Z,24.80
2018-05-31T06:12:44.833Z,22.33
2018-05-31T06:15:13.034Z,46.37
2018-05-31T06:17:41.201Z,20.40
2018-05-31T06:20:09.414Z,27.07
2018-05-31T06:22:38.351Z,24.70
2018-05-31T06:25:06.543Z,25.40
2018-05-31T06:27:34.698Z,22.57
2018-05-31T06:30:02.908Z,29.57
2018-05-31T06:32:31.830Z,36.77
2018-05-31T06:35:00.043Z,41.50
2018-05-31T06:37:28.297Z,23.33
2018-05-31T06:39:57.184Z,22.17
2018-05-31T06:42:25.401Z,25.03
2018-05-31T06:44:53.610Z,25.27
2018-05-31T06:47:22.822Z,24.90
2018-05-31T06:49:50.987Z,23.23
2018-05-31T06:52:19.196Z,25.37
2018-05-31T06:54:47.481Z,21.80
2018-05-31T06:57:15.626Z,22.90
2018-05-31T06:59:43.813Z,28.43
2018-05-31T07:02:12.052Z,27.43
2018-05-31T07:04:41.078Z,24.70
2018-05-31T07:07:09.217Z,26.03
2018-05-31T07:09:38.583Z,23.47
2018-05-31T07:12:07.552Z,21.57
2018-05-31T07:14:35.689Z,22.67
2018-05-31T07:17:04.605Z,18.90
2018-05-31T07:19:32.729Z,19.90
2018-05-31T07:22:00.891Z,21.20
2018-05-31T07:24:29.095Z,28.30
2018-05-31T07:26:58.034Z,21.20
2018-05-31T07:29:26.222Z,19.80
2018-05-31T07:31:54.416Z,28.40
2018-05-31T07:34:23.318Z,17.90
2018-05-31T07:36:52.241Z,22.60
2018-05-31T07:39:20.416Z,24.53
2018-05-31T07:41:48.584Z,21.77
2018-05-31T07:44:16.779Z,25.30
2018-05-31T07:46:45.211Z,20.07
2018-05-31T07:49:13.438Z,23.33
2018-05-31T07:51:41.570Z,23.27
2018-05-31T07:54:09.766Z,18.33
2018-05-31T07:56:37.931Z,20.20
2018-05-31T07:59:06.135Z,22.83
2018-05-31T08:01:34.311Z,26.90
2018-05-31T08:04:03.258Z,27.80
2018-05-31T08:06:31.421Z,27.00
2018-05-31T08:08:59.618Z,19.90
2018-05-31T08:11:27.786Z,18.73
2018-05-31T08:13:55.968Z,18.50
2018-05-31T08:16:24.163Z,19.43
2018-05-31T08:18:52.331Z,31.80
2018-05-31T08:21:20.487Z,19.50
2018-05-31T08:23:48.673Z,20.80
2018-05-31T08:26:16.962Z,20.30
2018-05-31T08:28:45.154Z,25.20
2018-05-31T08:31:13.376Z,19.37
2018-05-31T08:33:41.547Z,15.77
2018-05-31T08:36:09.844Z,22.53
2018-05-31T08:38:37.983Z,19.67
2018-05-31T08:41:06.160Z,23.60
2018-05-31T08:43:34.321Z,18.70
2018-05-31T08:46:02.554Z,19.80
2018-05-31T08:48:32.225Z,18.90
2018-05-31T08:51:00.460Z,21.00
2018-05-31T08:53:29.382Z,19.23
2018-05-31T08:55:57.570Z,17.90
2018-05-31T08:58:25.747Z,25.70
2018-05-31T09:00:54.532Z,20.20
2018-05-31T09:03:22.698Z,20.67
2018-05-31T09:05:50.864Z,21.20
2018-05-31T09:08:19.021Z,19.60
2018-05-31T09:10:47.162Z,17.33
2018-05-31T09:13:15.367Z,21.97
2018-05-31T09:15:43.505Z,18.37
2018-05-31T09:18:11.638Z,19.30
2018-05-31T09:20:39.786Z,24.17
2018-05-31T09:23:07.939Z,21.90
2018-05-31T09:25:36.882Z,21.60
2018-05-31T09:28:05.026Z,24.00
2018-05-31T09:30:33.213Z,22.67
2018-05-31T09:33:01.342Z,15.77
2018-05-31T09:35:30.299Z,17.43
2018-05-31T09:37:58.495Z,19.23
2018-05-31T09:40:26.630Z,22.93
2018-05-31T09:42:55.374Z,18.80
2018-05-31T09:45:24.429Z,20.00
2018-05-31T09:47:52.638Z,18.27
2018-05-31T09:50:21.553Z,14.50
2018-05-31T09:52:49.853Z,18.57
2018-05-31T09:55:18.031Z,16.33
2018-05-31T09:57:46.892Z,19.67
2018-05-31T10:00:16.861Z,18.10
2018-05-31T10:02:45.052Z,16.00
2018-05-31T10:05:13.993Z,16.17
2018-05-31T10:07:42.125Z,15.27
2018-05-31T10:10:11.149Z,17.13
2018-05-31T10:12:39.297Z,17.40
2018-05-31T10:15:07.487Z,16.30
2018-05-31T10:17:35.662Z,16.73
2018-05-31T10:20:03.879Z,20.67
2018-05-31T10:22:32.048Z,17.57
2018-05-31T10:25:00.358Z,27.80
2018-05-31T10:27:28.517Z,17.60
2018-05-31T10:29:57.465Z,13.17
2018-05-31T10:32:25.709Z,16.30
2018-05-31T10:34:53.898Z,20.93
2018-05-31T10:37:22.053Z,17.27
2018-05-31T10:39:50.202Z,15.90
2018-05-31T10:42:19.123Z,15.40
2018-05-31T10:44:47.286Z,20.30
2018-05-31T10:47:15.441Z,15.77
2018-05-31T10:49:44.408Z,16.07
2018-05-31T10:52:12.575Z,14.83
2018-05-31T10:54:40.754Z,15.77
2018-05-31T10:57:08.882Z,11.97
2018-05-31T10:59:37.082Z,15.90
2018-05-31T11:02:05.242Z,14.43
2018-05-31T11:04:33.430Z,11.27
2018-05-31T11:07:02.187Z,14.63
2018-05-31T11:09:30.670Z,12.10
2018-05-31T11:11:58.885Z,15.53
2018-05-31T11:14:27.072Z,16.23
2018-05-31T11:16:55.982Z,12.80
2018-05-31T11:19:24.929Z,11.63
2018-05-31T11:21:53.041Z,15.20
2018-05-31T11:24:22.038Z,16.37
2018-05-31T11:26:51.016Z,12.40
2018-05-31T11:29:19.999Z,12.00
2018-05-31T11:31:48.115Z,14.83
2018-05-31T11:34:16.304Z,14.47
2018-05-31T11:36:44.443Z,12.63
2018-05-31T11:39:12.584Z,10.70
2018-05-31T11:41:40.826Z,9.50
2018-05-31T11:44:08.967Z,20.60
2018-05-31T11:46:37.100Z,13.53
2018-05-31T11:49:05.756Z,10.13
2018-05-31T11:51:34.646Z,10.77
2018-05-31T11:54:02.841Z,15.00
2018-05-31T11:56:30.975Z,10.43
2018-05-31T11:58:59.162Z,14.53
2018-05-31T12:01:27.297Z,10.27
2018-05-31T12:03:55.438Z,13.70
2018-05-31T12:06:23.619Z,12.80
2018-05-31T12:08:51.853Z,8.80
2018-05-31T12:11:19.990Z,9.80
2018-05-31T12:13:48.125Z,13.70
2018-05-31T12:16:16.283Z,11.27
2018-05-31T12:18:44.442Z,13.63
2018-05-31T12:24:10.178Z,9.07
2018-05-31T12:26:38.350Z,10.35
2018-05-31T12:29:06.515Z,7.45
2018-05-31T12:31:34.665Z,11.00
2018-05-31T12:34:02.785Z,11.30
2018-05-31T12:36:31.000Z,10.85
2018-05-31T12:38:59.904Z,8.10
2018-05-31T12:41:28.037Z,6.40
2018-05-31T12:43:56.483Z,7.93
2018-05-31T12:46:25.609Z,6.68
2018-05-31T12:48:53.850Z,8.75
2018-05-31T12:51:22.026Z,6.53
2018-05-31T12:53:50.186Z,7.40
2018-05-31T12:56:18.337Z,6.85
2018-05-31T12:58:46.530Z,11.48
2018-05-31T13:01:14.713Z,7.25
2018-05-31T13:03:42.998Z,7.25
2018-05-31T13:06:11.140Z,7.53
2018-05-31T13:08:39.291Z,9.45
2018-05-31T13:11:08.219Z,9.18
2018-05-31T13:13:36.405Z,9.25
2018-05-31T13:16:04.660Z,9.03
2018-05-31T13:18:32.799Z,11.30
2018-05-31T13:21:11.644Z,9.53
2018-05-31T13:23:39.803Z,10.48
2018-05-31T13:26:07.985Z,9.68
2018-05-31T13:28:36.203Z,10.85
2018-05-31T13:31:04.408Z,7.90
2018-05-31T13:33:33.353Z,9.35
2018-05-31T13:36:02.353Z,7.10
2018-05-31T13:38:30.584Z,7.65
2018-05-31T13:40:59.839Z,8.40
2018-05-31T13:43:41.019Z,16.52
2018-05-31T13:46:09.231Z,7.93
2018-05-31T13:48:38.895Z,7.85
2018-05-31T13:51:07.048Z,7.75
2018-05-31T13:53:35.258Z,7.85
2018-05-31T13:56:03.791Z,8.13
2018-05-31T13:58:31.968Z,7.80
2018-05-31T14:01:00.156Z,8.43
2018-05-31T14:03:30.259Z,5.75
2018-05-31T14:05:58.460Z,9.57
2018-05-31T14:08:26.635Z,8.23
2018-05-31T14:10:54.845Z,7.60
2018-05-31T14:13:23.779Z,10.32
2018-05-31T14:15:51.929Z,13.38
2018-05-31T14:18:20.771Z,8.82
2018-05-31T14:20:49.090Z,14.50
2018-05-31T14:23:17.219Z,7.85
2018-05-31T14:25:45.360Z,8.65
2018-05-31T14:28:13.500Z,16.20
2018-05-31T14:30:41.678Z,9.02
2018-05-31T14:33:09.800Z,11.32
2018-05-31T14:35:37.964Z,7.65
2018-05-31T14:38:06.143Z,8.98
2018-05-31T14:40:34.314Z,12.95
2018-05-31T14:43:02.499Z,8.07
2018-05-31T14:45:30.837Z,12.68
2018-05-31T14:47:59.003Z,9.15
2018-05-31T14:50:27.198Z,8.88
2018-05-31T14:52:55.547Z,10.02
2018-05-31T14:55:23.755Z,6.65
2018-05-31T14:57:51.911Z,6.12
2018-05-31T15:00:20.076Z,9.68
2018-05-31T15:02:48.246Z,8.32
2018-05-31T15:05:16.398Z,8.75
2018-05-31T15:07:44.576Z,6.85
2018-05-31T15:10:12.758Z,9.15
2018-05-31T15:12:40.981Z,8.05
2018-05-31T15:15:09.105Z,8.73
2018-05-31T15:17:37.286Z,8.45
2018-05-31T15:20:05.420Z,11.52
2018-05-31T15:22:34.449Z,12.13
2018-05-31T15:25:02.591Z,8.57
2018-05-31T15:27:31.531Z,10.85
2018-05-31T15:29:59.690Z,10.75
2018-05-31T15:38:22.256Z,12.40
2018-05-31T15:40:50.419Z,11.20
2018-05-31T15:43:18.609Z,10.87
2018-05-31T15:45:47.502Z,17.33
2018-05-31T15:48:15.666Z,14.10
2018-05-31T15:50:43.847Z,21.13
2018-05-31T15:53:11.993Z,19.23
2018-05-31T15:55:40.189Z,16.50
2018-05-31T15:58:08.345Z,26.43
2018-05-31T16:00:36.555Z,19.10
2018-05-31T16:03:04.665Z,15.63
2018-05-31T16:05:33.610Z,17.80
2018-05-31T16:08:02.602Z,16.40
2018-05-31T16:10:30.831Z,17.00
2018-05-31T16:12:59.889Z,18.67
2018-05-31T16:15:37.965Z,20.40
2018-05-31T16:18:06.125Z,20.73
2018-05-31T16:20:34.249Z,25.53
2018-05-31T16:23:02.440Z,23.03
2018-05-31T16:25:31.341Z,20.70
2018-05-31T16:28:00.248Z,21.23
2018-05-31T16:30:28.555Z,19.30
2018-05-31T16:32:56.700Z,21.00
2018-05-31T16:35:25.033Z,25.60
2018-05-31T16:37:53.312Z,30.53
2018-05-31T16:40:22.255Z,18.53
2018-05-31T16:42:50.429Z,17.67
2018-05-31T16:45:18.641Z,22.63
2018-05-31T16:47:46.879Z,25.07
2018-05-31T16:50:15.187Z,19.97
2018-05-31T16:52:43.903Z,17.97
2018-05-31T16:55:12.845Z,30.53
2018-05-31T16:57:41.008Z,51.13
2018-05-31T17:00:09.154Z,23.40
2018-05-31T17:02:37.293Z,22.33
2018-05-31T17:05:05.451Z,24.77
2018-05-31T17:07:33.580Z,21.80
2018-05-31T17:10:01.811Z,21.37
2018-05-31T17:12:30.778Z,23.40
2018-05-31T17:14:59.010Z,18.57
2018-05-31T17:17:27.162Z,14.00
2018-05-31T17:19:56.082Z,22.73
2018-05-31T17:22:24.248Z,16.13
2018-05-31T17:24:52.398Z,22.90
2018-05-31T17:27:21.358Z,18.30
2018-05-31T17:29:49.534Z,14.60
2018-05-31T17:32:17.727Z,21.63
2018-05-31T17:34:45.866Z,17.03
2018-05-31T17:37:14.005Z,13.80
2018-05-31T17:39:42.208Z,22.83
2018-05-31T17:42:10.396Z,24.90
2018-05-31T17:44:38.525Z,13.37
2018-05-31T17:47:06.687Z,21.50
2018-05-31T17:49:34.875Z,13.17
2018-05-31T17:52:03.034Z,19.33
2018-05-31T17:54:31.254Z,17.73
2018-05-31T17:56:59.392Z,16.87
2018-05-31T17:59:27.830Z,18.63
2018-05-31T18:01:57.289Z,18.60
2018-05-31T18:04:25.441Z,24.77
2018-05-31T18:06:53.622Z,21.97
2018-05-31T18:09:21.829Z,19.03
2018-05-31T18:11:50.001Z,14.83
2018-05-31T18:14:18.226Z,15.07
2018-05-31T18:16:47.115Z,25.83
2018-05-31T18:19:15.344Z,21.73
2018-05-31T18:21:43.698Z,18.10
2018-05-31T18:24:12.230Z,27.60
2018-05-31T18:26:41.157Z,17.77
2018-05-31T18:29:09.806Z,17.80
2018-05-31T18:31:38.709Z,25.03
2018-05-31T18:34:07.639Z,16.83
2018-05-31T18:36:35.798Z,22.20
2018-05-31T18:39:03.924Z,23.33
2018-05-31T18:41:32.896Z,19.63
2018-05-31T18:44:01.090Z,19.00
2018-05-31T18:46:30.119Z,16.57
2018-05-31T18:48:58.339Z,17.97
2018-05-31T18:51:26.591Z,35.10
2018-05-31T18:53:55.210Z,22.03
2018-05-31T18:56:23.386Z,20.43
2018-05-31T18:58:52.335Z,39.23
2018-05-31T19:01:20.483Z,22.23
2018-05-31T19:03:48.654Z,25.03
2018-05-31T19:06:16.789Z,28.50
2018-05-31T19:08:45.003Z,19.93
2018-05-31T19:11:13.192Z,19.60
2018-05-31T19:13:46.972Z,21.40
2018-05-31T19:16:15.187Z,30.63
2018-05-31T19:18:48.838Z,20.47
2018-05-31T19:21:16.995Z,17.03
2018-05-31T19:23:49.474Z,18.43
2018-05-31T19:26:17.619Z,23.33
2018-05-31T19:28:45.919Z,19.30
2018-05-31T19:31:32.689Z,19.53
2018-05-31T19:34:00.841Z,18.07
2018-05-31T19:36:34.654Z,18.37
2018-05-31T19:39:04.206Z,26.10
2018-05-31T19:41:32.632Z,20.50
2018-05-31T19:44:06.502Z,21.47
2018-05-31T19:46:35.491Z,22.30
2018-05-31T19:49:04.442Z,18.50
2018-05-31T19:51:38.216Z,20.97
2018-05-31T19:54:06.397Z,27.93
2018-05-31T19:56:34.529Z,28.17
2018-05-31T19:59:09.319Z,19.13
2018-05-31T20:01:43.071Z,28.43
2018-05-31T20:04:12.020Z,19.67
2018-05-31T20:06:40.173Z,23.00
2018-05-31T20:09:08.345Z,18.43
2018-05-31T20:11:36.673Z,24.83
2018-05-31T20:14:04.903Z,17.27
2018-05-31T20:16:33.569Z,32.60
2018-05-31T20:19:01.870Z,18.73
2018-05-31T20:21:30.040Z,16.83
2018-05-31T20:23:58.199Z,23.90
2018-05-31T20:26:26.480Z,22.17
2018-05-31T20:29:05.308Z,27.33
2018-05-31T20:31:33.446Z,18.13
2018-05-31T20:34:01.633Z,27.50
2018-05-31T20:36:29.830Z,18.93
2018-05-31T20:38:58.137Z,22.73
2018-05-31T20:41:26.346Z,18.10
2018-05-31T20:43:54.471Z,19.63
2018-05-31T20:46:22.679Z,27.67
2018-05-31T20:48:50.836Z,19.67
2018-05-31T20:51:19.804Z,17.57
2018-05-31T20:53:47.966Z,16.13
2018-05-31T20:56:16.156Z,17.87
2018-05-31T20:58:44.304Z,16.97
2018-05-31T21:01:12.440Z,18.00
2018-05-31T21:03:40.605Z,22.33
2018-05-31T21:06:09.918Z,22.63
2018-05-31T21:08:38.059Z,16.10
2018-05-31T21:11:06.312Z,16.70
2018-05-31T21:13:34.531Z,22.30
2018-05-31T21:16:02.712Z,18.70
2018-05-31T21:18:30.861Z,24.93
2018-05-31T21:20:59.770Z,15.73
2018-05-31T21:23:27.957Z,21.00
2018-05-31T21:25:56.141Z,17.47
2018-05-31T21:28:24.350Z,21.00
2018-05-31T21:30:52.527Z,23.00
2018-05-31T21:33:20.673Z,16.03
2018-05-31T21:35:48.833Z,28.83
2018-05-31T21:38:17.479Z,27.87
2018-05-31T21:40:46.381Z,23.73
2018-05-31T21:43:15.267Z,17.83
2018-05-31T21:45:43.455Z,20.03
2018-05-31T21:48:11.635Z,18.40
2018-05-31T21:50:39.772Z,19.20
2018-05-31T21:53:08.688Z,18.60
2018-05-31T21:55:36.888Z,18.83
2018-05-31T21:58:05.100Z,17.80
2018-05-31T22:00:39.626Z,17.20
2018-05-31T22:03:08.524Z,19.00
2018-05-31T22:05:37.439Z,19.20
2018-05-31T22:08:05.691Z,19.20
2018-05-31T22:10:33.834Z,29.13
2018-05-31T22:13:02.091Z,20.00
2018-05-31T22:15:30.369Z,18.20
2018-05-31T22:17:58.621Z,21.60
2018-05-31T22:20:26.802Z,19.03
2018-05-31T22:22:55.066Z,26.50
2018-05-31T22:25:23.226Z,18.40
2018-05-31T22:27:51.448Z,26.70
2018-05-31T22:30:19.638Z,24.40
2018-05-31T22:32:47.855Z,23.30
2018-05-31T22:35:16.791Z,22.50
2018-05-31T22:37:44.974Z,21.37
2018-05-31T22:40:13.210Z,20.47
2018-05-31T22:42:41.394Z,22.60
2018-05-31T22:45:09.559Z,21.10
2018-05-31T22:47:37.732Z,35.43
2018-05-31T22:50:05.914Z,25.00
2018-05-31T22:52:34.182Z,25.30
2018-05-31T22:55:02.353Z,21.63
2018-05-31T22:57:30.689Z,24.53
2018-05-31T22:59:58.906Z,28.43
2018-05-31T23:02:27.064Z,20.30
2018-05-31T23:04:55.270Z,24.20
2018-05-31T23:07:23.444Z,21.70
2018-05-31T23:09:51.706Z,32.77
2018-05-31T23:12:19.977Z,31.93
2018-05-31T23:14:48.150Z,20.37
2018-05-31T23:17:16.397Z,23.73
2018-05-31T23:19:44.621Z,29.30
2018-05-31T23:22:12.770Z,26.60
2018-05-31T23:24:40.931Z,31.10
2018-05-31T23:27:09.162Z,27.17
2018-05-31T23:29:38.094Z,26.80
2018-05-31T23:32:06.255Z,27.23
2018-05-31T23:34:34.430Z,22.50
